Time;durP1;ratioP1;P1;durP2;ratioP2;P2;SDS_P1;SDS_P2;PMS_P1;PMS_P2;Temp;Humidity;BMP_temperature;BMP_pressure;BME280_temperature;BME280_humidity;BME280_pressure;Samples;Min_cycle;Max_cycle;Signal;HPM_P1;HPM_P2
2021/04/28 00:00:29;;;;;;;12.70;5.20;;;8.90;73.90;;;;;;5042365;28;20142;-64
2021/04/28 00:02:56;;;;;;;12.35;5.68;;;8.80;75.20;;;;;;5043080;28;20053;-64
2021/04/28 00:05:23;;;;;;;10.57;4.68;;;8.90;75.50;;;;;;5045176;28;20508;-64
2021/04/28 00:07:50;;;;;;;11.98;5.88;;;8.80;75.90;;;;;;5044528;28;20051;-64
2021/04/28 00:10:19;;;;;;;14.07;5.50;;;8.60;76.70;;;;;;5043163;28;20056;-65
2021/04/28 00:12:47;;;;;;;15.98;6.60;;;8.70;78.20;;;;;;5047837;28;20048;-64
2021/04/28 00:15:16;;;;;;;11.10;5.88;;;8.50;79.80;;;;;;5047353;28;20053;-64
2021/04/28 00:17:42;;;;;;;12.65;5.07;;;8.60;80.30;;;;;;5042857;28;20060;-65
2021/04/28 00:20:15;;;;;;;10.65;5.63;;;8.60;80.50;;;;;;5045723;28;20044;-64
2021/04/28 00:22:43;;;;;;;11.18;5.65;;;8.50;81.30;;;;;;5041608;28;20048;-64
2021/04/28 00:25:12;;;;;;;10.73;5.75;;;8.50;82.30;;;;;;5042806;28;20049;-64
2021/04/28 00:27:39;;;;;;;12.05;5.43;;;8.50;85.10;;;;;;5044237;28;20052;-65
2021/04/28 00:30:09;;;;;;;12.55;5.95;;;8.40;86.90;;;;;;5046787;28;20079;-64
2021/04/28 00:32:37;;;;;;;12.27;5.72;;;8.40;87.50;;;;;;5043518;28;21410;-65
2021/04/28 00:35:06;;;;;;;13.27;5.97;;;8.60;90.10;;;;;;5046908;28;20067;-64
2021/04/28 00:37:32;;;;;;;12.90;5.82;;;8.50;90.80;;;;;;5047610;28;20404;-65
2021/04/28 00:39:59;;;;;;;12.33;6.37;;;8.50;91.40;;;;;;5041941;28;20486;-65
2021/04/28 00:42:26;;;;;;;14.38;5.85;;;8.40;92.60;;;;;;5048315;28;20139;-64
2021/04/28 00:44:53;;;;;;;13.87;6.17;;;8.40;93.90;;;;;;5044571;28;20052;-65
2021/04/28 00:47:21;;;;;;;13.60;6.13;;;8.50;94.50;;;;;;5041850;28;20048;-65
2021/04/28 00:49:47;;;;;;;14.45;6.15;;;8.50;95.10;;;;;;5044915;28;20501;-65
2021/04/28 00:52:14;;;;;;;10.37;5.60;;;8.40;96.30;;;;;;5045945;28;20126;-65
2021/04/28 00:54:41;;;;;;;13.20;5.93;;;8.30;96.70;;;;;;5045051;28;20088;-64
2021/04/28 00:57:08;;;;;;;14.73;5.65;;;8.30;97.90;;;;;;5045354;28;20051;-65
2021/04/28 00:59:35;;;;;;;11.13;5.85;;;8.40;99.20;;;;;;5041060;28;20055;-64
2021/04/28 01:02:01;;;;;;;12.50;5.77;;;8.30;99.60;;;;;;5042372;28;20079;-64
2021/04/28 01:04:29;;;;;;;;;;;8.20;99.90;;;;;;5041415;28;20055;-64
2021/04/28 01:06:56;;;;;;;15.33;6.37;;;8.10;99.90;;;;;;5043067;28;19924;-64
2021/04/28 01:09:24;;;;;;;12.03;5.60;;;8.10;99.90;;;;;;5041343;28;20048;-64
2021/04/28 01:11:51;;;;;;;14.27;5.80;;;8.20;99.90;;;;;;5043132;28;20098;-65
2021/04/28 01:14:18;;;;;;;11.63;6.10;;;8.00;99.90;;;;;;5042717;28;20072;-64
2021/04/28 01:16:45;;;;;;;12.03;5.80;;;8.00;99.90;;;;;;5042957;28;20049;-65
2021/04/28 01:19:13;;;;;;;18.47;7.60;;;7.90;99.90;;;;;;5043730;28;20504;-65
2021/04/28 01:21:41;;;;;;;14.03;7.20;;;8.00;99.90;;;;;;5052975;28;20048;-65
2021/04/28 01:24:10;;;;;;;12.03;6.97;;;7.80;99.90;;;;;;5042942;28;20056;-64
2021/04/28 01:26:37;;;;;;;13.37;6.67;;;7.80;99.90;;;;;;5057075;28;20525;-65
2021/04/28 01:29:04;;;;;;;12.97;6.27;;;7.70;99.90;;;;;;5058857;28;20501;-64
2021/04/28 01:31:34;;;;;;;12.53;6.03;;;7.80;99.90;;;;;;5043100;28;20048;-64
2021/04/28 01:34:04;;;;;;;14.50;6.83;;;7.80;99.90;;;;;;5042169;28;20059;-64
2021/04/28 01:36:34;;;;;;;12.70;6.73;;;7.60;99.90;;;;;;5046858;28;20063;-64
2021/04/28 01:39:06;;;;;;;13.63;6.50;;;7.50;99.90;;;;;;5041337;28;20162;-64
2021/04/28 01:41:39;;;;;;;11.40;5.57;;;7.50;99.90;;;;;;5045139;28;20056;-64
2021/04/28 01:44:07;;;;;;;13.60;6.23;;;7.60;99.90;;;;;;5044539;28;20607;-64
2021/04/28 01:46:34;;;;;;;11.50;6.60;;;7.60;99.90;;;;;;5043418;28;20053;-64
2021/04/28 01:49:02;;;;;;;15.57;5.87;;;7.60;99.90;;;;;;5041948;28;20083;-65
2021/04/28 01:51:30;;;;;;;13.70;5.73;;;7.50;99.90;;;;;;5043481;28;20058;-64
2021/04/28 01:53:57;;;;;;;13.07;5.97;;;7.50;99.90;;;;;;5044565;28;20059;-64
2021/04/28 01:56:23;;;;;;;12.97;5.90;;;7.40;99.90;;;;;;5045513;28;20650;-64
2021/04/28 01:58:53;;;;;;;13.97;6.90;;;7.50;99.90;;;;;;5037151;28;20505;-64
2021/04/28 02:01:20;;;;;;;12.13;5.87;;;7.30;99.90;;;;;;5041067;28;20052;-64
2021/04/28 02:03:46;;;;;;;10.17;6.07;;;7.20;99.90;;;;;;5040758;28;20087;-64
2021/04/28 02:06:13;;;;;;;13.03;5.90;;;7.20;99.90;;;;;;5044425;28;21079;-65
2021/04/28 02:08:39;;;;;;;;;;;7.20;99.90;;;;;;5041333;28;20946;-65
2021/04/28 02:11:06;;;;;;;12.63;6.90;;;7.10;99.90;;;;;;5044708;28;19920;-64
2021/04/28 02:13:36;;;;;;;11.03;6.00;;;7.10;99.90;;;;;;5046787;28;20089;-64
2021/04/28 02:16:04;;;;;;;16.87;6.50;;;7.10;99.90;;;;;;5039772;28;20052;-64
2021/04/28 02:18:31;;;;;;;11.30;6.13;;;7.20;99.90;;;;;;5042276;28;20063;-64
2021/04/28 02:21:02;;;;;;;13.37;6.40;;;7.20;99.90;;;;;;5037031;28;20694;-65
2021/04/28 02:23:31;;;;;;;15.50;5.70;;;7.20;99.90;;;;;;5042172;28;20060;-64
2021/04/28 02:25:57;;;;;;;11.47;5.90;;;7.10;99.90;;;;;;5041705;28;20087;-64
2021/04/28 02:28:32;;;;;;;10.77;5.17;;;7.10;99.90;;;;;;5045967;28;20055;-65
2021/04/28 02:31:01;;;;;;;11.23;5.67;;;7.00;99.90;;;;;;5052140;28;20060;-65
2021/04/28 02:33:30;;;;;;;11.83;5.73;;;7.10;99.90;;;;;;5048623;28;20062;-65
2021/04/28 02:35:58;;;;;;;11.63;6.20;;;7.00;99.90;;;;;;5050609;28;20055;-65
2021/04/28 02:38:30;;;;;;;17.20;6.43;;;6.80;99.90;;;;;;5051970;28;20068;-67
2021/04/28 02:40:58;;;;;;;13.07;6.70;;;6.90;99.90;;;;;;5042686;28;20052;-67
2021/04/28 02:43:25;;;;;;;11.20;6.40;;;6.80;99.90;;;;;;5044398;28;20056;-67
2021/04/28 02:45:54;;;;;;;12.30;6.63;;;6.80;99.90;;;;;;5039580;28;20129;-67
2021/04/28 02:48:21;;;;;;;16.77;6.80;;;6.80;99.90;;;;;;5049077;28;20055;-67
2021/04/28 02:50:51;;;;;;;12.30;6.20;;;6.70;99.90;;;;;;5047142;28;20052;-67
2021/04/28 02:53:19;;;;;;;12.67;6.23;;;6.80;99.90;;;;;;5045367;28;20802;-66
2021/04/28 02:55:46;;;;;;;13.17;6.43;;;6.70;99.90;;;;;;5044853;28;20059;-68
2021/04/28 02:58:14;;;;;;;12.30;6.80;;;6.60;99.90;;;;;;5044735;28;20421;-67
2021/04/28 03:00:41;;;;;;;12.17;6.90;;;6.60;99.90;;;;;;5045796;28;20052;-67
2021/04/28 03:03:08;;;;;;;14.10;6.57;;;6.70;99.90;;;;;;5046428;28;20492;-67
2021/04/28 03:05:35;;;;;;;16.80;7.80;;;6.50;99.90;;;;;;5045589;28;20994;-67
2021/04/28 03:08:03;;;;;;;18.53;6.90;;;6.50;99.90;;;;;;5045628;28;20056;-68
2021/04/28 03:10:29;;;;;;;13.30;6.53;;;6.50;99.90;;;;;;5047378;28;20048;-67
2021/04/28 03:12:56;;;;;;;11.80;6.70;;;6.50;99.90;;;;;;5045354;28;20082;-68
2021/04/28 03:15:23;;;;;;;17.20;7.17;;;6.50;99.90;;;;;;5044648;28;20056;-67
2021/04/28 03:17:51;;;;;;;14.10;6.57;;;6.70;99.90;;;;;;5045402;28;20961;-67
2021/04/28 03:20:19;;;;;;;14.10;6.43;;;6.50;99.90;;;;;;5046465;28;20064;-67
2021/04/28 03:22:46;;;;;;;12.67;6.50;;;6.40;99.90;;;;;;5046076;28;20531;-67
2021/04/28 03:25:14;;;;;;;13.77;7.17;;;6.40;99.90;;;;;;5051659;28;20102;-67
2021/04/28 03:27:41;;;;;;;13.90;6.90;;;6.40;99.90;;;;;;5046255;28;20058;-67
2021/04/28 03:30:09;;;;;;;13.17;7.10;;;6.40;99.90;;;;;;5045854;28;20054;-67
2021/04/28 03:32:36;;;;;;;14.33;7.00;;;6.50;99.90;;;;;;5045599;28;20056;-68
2021/04/28 03:35:03;;;;;;;14.70;6.47;;;6.50;99.90;;;;;;5045612;28;20071;-67
2021/04/28 03:37:30;;;;;;;16.07;7.10;;;6.60;99.90;;;;;;5047270;28;20044;-68
2021/04/28 03:39:57;;;;;;;15.33;7.63;;;6.50;99.90;;;;;;5050790;28;20503;-68
2021/04/28 03:42:24;;;;;;;14.90;7.13;;;6.30;99.90;;;;;;5048299;28;20064;-68
2021/04/28 03:44:52;;;;;;;13.13;7.40;;;6.20;99.90;;;;;;5043132;28;20079;-68
2021/04/28 03:47:19;;;;;;;14.20;6.77;;;6.10;99.90;;;;;;5045746;28;20118;-67
2021/04/28 03:49:46;;;;;;;12.90;7.40;;;6.10;99.90;;;;;;5042765;28;20048;-68
2021/04/28 03:52:13;;;;;;;12.43;7.23;;;6.10;99.90;;;;;;5048064;28;20052;-68
2021/04/28 03:54:39;;;;;;;13.63;7.27;;;6.10;99.90;;;;;;5044310;28;20048;-68
2021/04/28 03:57:07;;;;;;;16.07;7.80;;;6.10;99.90;;;;;;5044829;28;20044;-68
2021/04/28 03:59:35;;;;;;;13.33;6.83;;;6.10;99.90;;;;;;5046538;28;20045;-68
2021/04/28 04:02:01;;;;;;;17.67;7.10;;;6.10;99.90;;;;;;5042343;28;20500;-69
2021/04/28 04:04:28;;;;;;;15.00;7.40;;;6.10;99.90;;;;;;5045916;28;20048;-68
2021/04/28 04:06:55;;;;;;;16.93;7.50;;;6.10;99.90;;;;;;5041992;28;20451;-67
2021/04/28 04:09:22;;;;;;;18.40;7.53;;;6.00;99.90;;;;;;5045055;28;20684;-68
2021/04/28 04:11:49;;;;;;;16.40;7.83;;;6.00;99.90;;;;;;5044346;28;20059;-68
2021/04/28 04:14:16;;;;;;;17.60;8.47;;;6.20;99.90;;;;;;5040707;28;20059;-68
2021/04/28 04:16:44;;;;;;;18.37;8.03;;;6.10;99.90;;;;;;5043086;28;20056;-68
2021/04/28 04:19:11;;;;;;;17.03;8.63;;;6.10;99.90;;;;;;5049088;28;20055;-67
2021/04/28 04:21:38;;;;;;;15.53;8.13;;;6.20;99.90;;;;;;5043997;28;20060;-68
2021/04/28 04:24:06;;;;;;;30.17;9.67;;;6.10;99.90;;;;;;5045077;28;20532;-68
2021/04/28 04:26:33;;;;;;;18.03;7.97;;;5.90;99.90;;;;;;5047025;28;20051;-68
2021/04/28 04:29:00;;;;;;;22.87;8.43;;;6.00;99.90;;;;;;5043249;28;20055;-68
2021/04/28 04:31:26;;;;;;;15.27;7.67;;;6.00;99.90;;;;;;5049464;28;20082;-68
2021/04/28 04:33:54;;;;;;;24.27;9.53;;;6.00;99.90;;;;;;5044496;28;20572;-68
2021/04/28 04:36:20;;;;;;;19.87;8.53;;;6.10;99.90;;;;;;5042514;28;20058;-68
2021/04/28 04:38:47;;;;;;;15.33;8.23;;;6.00;99.90;;;;;;5040663;28;20459;-68
2021/04/28 04:41:14;;;;;;;16.97;8.43;;;6.10;99.90;;;;;;5047060;28;20052;-68
2021/04/28 04:43:41;;;;;;;16.73;7.80;;;6.20;99.90;;;;;;5042464;28;20652;-68
2021/04/28 04:46:07;;;;;;;16.27;8.03;;;6.20;99.90;;;;;;5042233;28;20052;-67
2021/04/28 04:48:34;;;;;;;17.53;8.07;;;6.20;99.90;;;;;;5044120;28;20057;-67
2021/04/28 04:51:02;;;;;;;17.37;8.10;;;6.20;99.90;;;;;;5042341;28;20143;-68
2021/04/28 04:53:28;;;;;;;16.23;7.60;;;6.10;99.90;;;;;;5040573;28;20056;-68
2021/04/28 04:55:55;;;;;;;19.13;7.37;;;6.20;99.90;;;;;;5046001;28;20085;-68
2021/04/28 04:58:22;;;;;;;17.67;8.43;;;6.30;99.90;;;;;;5041208;28;20496;-68
2021/04/28 05:00:48;;;;;;;14.83;7.20;;;6.30;99.90;;;;;;5040953;28;20036;-68
2021/04/28 05:03:15;;;;;;;17.87;7.70;;;6.40;99.90;;;;;;5041232;28;20056;-68
2021/04/28 05:05:41;;;;;;;13.20;7.47;;;6.50;99.90;;;;;;5044647;28;20052;-68
2021/04/28 05:08:09;;;;;;;17.57;7.77;;;6.50;99.90;;;;;;5038878;28;20101;-68
2021/04/28 05:10:36;;;;;;;16.27;8.07;;;6.50;99.90;;;;;;5042099;28;20312;-68
2021/04/28 05:13:03;;;;;;;16.33;8.13;;;6.60;99.90;;;;;;5049441;28;20141;-69
2021/04/28 05:15:30;;;;;;;15.07;7.80;;;6.60;99.90;;;;;;5040969;28;20052;-68
2021/04/28 05:17:58;;;;;;;16.27;7.00;;;6.70;99.90;;;;;;5046731;28;20059;-68
2021/04/28 05:20:26;;;;;;;16.27;7.93;;;6.70;99.90;;;;;;5049323;28;20512;-68
2021/04/28 05:22:53;;;;;;;15.93;8.03;;;6.80;99.90;;;;;;5049090;28;20199;-68
2021/04/28 05:25:21;;;;;;;15.80;7.37;;;6.90;99.90;;;;;;5049101;28;20048;-68
2021/04/28 05:27:47;;;;;;;17.90;7.90;;;6.80;99.90;;;;;;5044929;28;20153;-68
2021/04/28 05:30:15;;;;;;;16.20;8.47;;;6.90;99.90;;;;;;5044031;28;20113;-68
2021/04/28 05:32:42;;;;;;;15.40;8.37;;;6.90;99.90;;;;;;5043766;28;20056;-68
2021/04/28 05:35:10;;;;;;;21.03;8.27;;;6.90;99.90;;;;;;5042516;28;20052;-68
2021/04/28 05:37:36;;;;;;;17.70;7.90;;;7.00;99.90;;;;;;5048657;28;20565;-69
2021/04/28 05:40:04;;;;;;;19.20;8.40;;;7.00;99.90;;;;;;5045006;28;20049;-68
2021/04/28 05:42:32;;;;;;;14.90;7.90;;;7.10;99.90;;;;;;5045962;28;20051;-68
2021/04/28 05:45:00;;;;;;;18.00;7.93;;;7.10;99.90;;;;;;5045186;28;20063;-68
2021/04/28 05:47:27;;;;;;;16.07;8.17;;;7.30;99.90;;;;;;5042397;28;20059;-68
2021/04/28 05:49:53;;;;;;;17.70;8.40;;;7.40;99.90;;;;;;5045272;28;20055;-68
2021/04/28 05:52:20;;;;;;;18.00;8.00;;;7.40;99.90;;;;;;5042847;28;20051;-69
2021/04/28 05:54:47;;;;;;;17.07;7.90;;;7.30;99.90;;;;;;5053198;28;20068;-68
2021/04/28 05:57:16;;;;;;;17.53;8.00;;;7.30;99.90;;;;;;5047257;28;20045;-68
2021/04/28 05:59:44;;;;;;;21.90;8.67;;;7.40;99.90;;;;;;5048832;28;20048;-68
2021/04/28 06:02:10;;;;;;;16.50;8.63;;;7.50;99.90;;;;;;5051710;28;20081;-68
2021/04/28 06:04:37;;;;;;;15.33;8.90;;;7.50;99.90;;;;;;5050365;28;20048;-68
2021/04/28 06:07:04;;;;;;;16.93;8.10;;;7.60;99.90;;;;;;5043456;28;20048;-68
2021/04/28 06:09:30;;;;;;;18.33;8.40;;;7.80;99.90;;;;;;5043689;28;20052;-68
2021/04/28 06:11:57;;;;;;;13.07;7.43;;;7.80;99.90;;;;;;5047903;28;20052;-68
2021/04/28 06:14:23;;;;;;;16.83;9.07;;;8.00;99.90;;;;;;5048192;28;20543;-68
2021/04/28 06:16:51;;;;;;;16.00;8.13;;;8.00;99.90;;;;;;5048262;28;20053;-68
2021/04/28 06:19:18;;;;;;;18.23;9.80;;;8.20;99.90;;;;;;5044133;28;20075;-68
2021/04/28 06:21:44;;;;;;;16.30;8.10;;;8.20;99.90;;;;;;5043299;28;20137;-67
2021/04/28 06:24:12;;;;;;;15.80;9.17;;;8.30;99.90;;;;;;5043813;28;20125;-68
2021/04/28 06:26:41;;;;;;;15.33;8.10;;;8.40;99.90;;;;;;5040447;28;20056;-66
2021/04/28 06:29:07;;;;;;;19.65;9.15;;;8.50;99.90;;;;;;5044167;28;20428;-65
2021/04/28 06:31:34;;;;;;;21.67;9.20;;;8.50;99.90;;;;;;5043385;28;20098;-65
2021/04/28 06:34:02;;;;;;;19.23;8.82;;;8.70;99.90;;;;;;5044039;28;20050;-66
2021/04/28 06:36:28;;;;;;;19.75;9.73;;;8.80;99.90;;;;;;5042581;28;20080;-66
2021/04/28 06:38:56;;;;;;;20.73;10.40;;;9.00;99.90;;;;;;5040596;28;20073;-65
2021/04/28 06:41:22;;;;;;;17.75;8.38;;;9.10;99.90;;;;;;5043999;28;20086;-65
2021/04/28 06:43:49;;;;;;;;;;;9.30;99.90;;;;;;5045483;28;20094;-66
2021/04/28 06:46:15;;;;;;;20.23;10.43;;;9.40;99.90;;;;;;5040632;28;19959;-65
2021/04/28 06:48:41;;;;;;;;;;;9.60;99.90;;;;;;5041709;28;20110;-65
2021/04/28 06:51:09;;;;;;;18.77;10.18;;;9.70;99.90;;;;;;5043729;28;19924;-68
2021/04/28 06:53:35;;;;;;;18.73;9.18;;;9.80;99.90;;;;;;5041156;28;20090;-68
2021/04/28 06:56:02;;;;;;;;;;;9.90;99.90;;;;;;5045410;28;20048;-68
2021/04/28 06:58:30;;;;;;;18.38;8.32;;;10.00;99.90;;;;;;5043372;28;20051;-68
2021/04/28 07:00:56;;;;;;;20.95;8.48;;;10.00;99.90;;;;;;5042861;28;20163;-68
2021/04/28 07:03:23;;;;;;;16.58;8.68;;;10.20;99.90;;;;;;5047267;28;20064;-68
2021/04/28 07:05:50;;;;;;;18.17;9.32;;;10.30;99.90;;;;;;5041313;28;20079;-68
2021/04/28 07:08:17;;;;;;;22.40;9.68;;;10.40;99.90;;;;;;5044263;28;20086;-68
2021/04/28 07:10:44;;;;;;;18.48;9.70;;;10.60;99.90;;;;;;5043201;28;20455;-68
2021/04/28 07:13:10;;;;;;;;;;;10.70;99.90;;;;;;5043802;28;20055;-68
2021/04/28 07:15:37;;;;;;;16.42;8.48;;;10.90;99.90;;;;;;5043585;28;20038;-68
2021/04/28 07:18:04;;;;;;;18.88;9.68;;;11.00;99.90;;;;;;5042890;28;20052;-68
2021/04/28 07:20:31;;;;;;;24.13;9.60;;;11.20;99.90;;;;;;5045298;28;20202;-68
2021/04/28 07:22:58;;;;;;;23.35;9.60;;;11.30;99.90;;;;;;5042245;28;20117;-68
2021/04/28 07:25:25;;;;;;;;;;;11.40;99.90;;;;;;5041916;28;20132;-68
2021/04/28 07:27:51;;;;;;;28.05;10.48;;;11.50;99.90;;;;;;5042283;28;20301;-68
2021/04/28 07:30:19;;;;;;;;;;;11.70;99.90;;;;;;5043711;28;20180;-68
2021/04/28 07:32:45;;;;;;;21.65;9.77;;;11.90;99.90;;;;;;5046631;28;19935;-68
2021/04/28 07:35:13;;;;;;;25.10;10.00;;;12.00;99.90;;;;;;5046559;28;20493;-68
2021/04/28 07:37:39;;;;;;;19.45;9.65;;;12.10;99.90;;;;;;5047898;28;20052;-71
2021/04/28 07:40:08;;;;;;;19.38;10.63;;;12.30;99.90;;;;;;5043251;28;20052;-72
2021/04/28 07:42:35;;;;;;;26.02;10.15;;;12.50;99.90;;;;;;5048898;28;20052;-72
2021/04/28 07:45:03;;;;;;;25.50;11.02;;;12.60;99.90;;;;;;5047103;28;20673;-70
2021/04/28 07:47:29;;;;;;;25.42;9.23;;;12.80;99.90;;;;;;5047564;28;20394;-73
2021/04/28 07:49:55;;;;;;;;;;;13.00;99.90;;;;;;5047108;28;20215;-72
2021/04/28 07:52:22;;;;;;;19.08;9.90;;;13.20;99.90;;;;;;5047644;28;20018;-71
2021/04/28 07:54:49;;;;;;;19.23;9.88;;;13.30;99.90;;;;;;5044218;28;20048;-70
2021/04/28 07:57:15;;;;;;;18.88;9.65;;;13.40;99.90;;;;;;5047574;28;20048;-70
2021/04/28 07:59:59;;;;;;;19.90;10.45;;;13.70;99.90;;;;;;5063109;28;20082;-69
2021/04/28 08:02:40;;;;;;;22.40;10.50;;;13.80;99.90;;;;;;5070904;28;20471;-69
2021/04/28 08:05:08;;;;;;;20.75;10.13;;;13.90;99.90;;;;;;5061762;28;20322;-70
2021/04/28 08:07:35;;;;;;;21.42;10.18;;;14.20;99.90;;;;;;5058632;28;20056;-70
2021/04/28 08:10:02;;;;;;;16.63;9.48;;;14.50;99.90;;;;;;5057679;28;20412;-70
2021/04/28 08:12:29;;;;;;;19.73;10.32;;;14.60;99.80;;;;;;5058354;28;20110;-70
2021/04/28 08:14:56;;;;;;;16.90;9.50;;;14.90;99.20;;;;;;5057181;28;20193;-70
2021/04/28 08:17:22;;;;;;;18.17;9.90;;;15.10;98.50;;;;;;5058557;28;20140;-70
2021/04/28 08:19:49;;;;;;;;;;;15.30;97.70;;;;;;5059541;28;20470;-71
2021/04/28 08:22:15;;;;;;;16.33;9.48;;;15.60;97.20;;;;;;5057891;28;20392;-70
2021/04/28 08:24:42;;;;;;;11.82;7.43;;;15.80;95.20;;;;;;5059959;28;20400;-70
2021/04/28 08:27:08;;;;;;;;;;;15.90;93.90;;;;;;5055697;28;20072;-72
2021/04/28 08:29:34;;;;;;;12.93;7.53;;;15.80;94.20;;;;;;5057158;28;20346;-70
2021/04/28 08:32:02;;;;;;;;;;;16.00;93.10;;;;;;5055427;28;20091;-71
2021/04/28 08:34:28;;;;;;;;;;;16.60;92.60;;;;;;5058101;28;19950;-70
2021/04/28 08:36:55;;;;;;;14.43;7.20;;;17.10;91.80;;;;;;5058328;28;19971;-71
2021/04/28 08:39:21;;;;;;;13.75;7.07;;;18.00;90.70;;;;;;5055005;28;20063;-71
2021/04/28 08:41:49;;;;;;;16.88;7.68;;;18.80;87.30;;;;;;5058476;28;20103;-71
2021/04/28 08:44:16;;;;;;;18.55;9.07;;;19.00;82.30;;;;;;5054578;28;20406;-70
2021/04/28 08:46:45;;;;;;;14.43;7.38;;;18.60;81.80;;;;;;5040824;28;20060;-67
2021/04/28 08:49:12;;;;;;;12.18;7.35;;;19.60;77.80;;;;;;5039997;28;20064;-68
2021/04/28 08:51:39;;;;;;;13.85;7.63;;;19.90;75.10;;;;;;5039881;28;20044;-67
2021/04/28 08:54:06;;;;;;;12.95;7.40;;;21.20;71.60;;;;;;5043791;28;20079;-69
2021/04/28 08:56:35;;;;;;;11.55;7.35;;;21.90;68.90;;;;;;5044313;28;20055;-69
2021/04/28 08:59:05;;;;;;;11.25;6.97;;;22.30;65.90;;;;;;5041924;28;20516;-68
2021/04/28 09:01:36;;;;;;;19.52;6.90;;;23.60;62.00;;;;;;5042906;28;20056;-68
2021/04/28 09:04:14;;;;;;;13.50;8.18;;;24.20;58.30;;;;;;5042512;28;20061;-68
2021/04/28 09:06:41;;;;;;;18.13;7.65;;;23.90;57.00;;;;;;5042011;28;20133;-68
2021/04/28 09:09:10;;;;;;;16.20;7.43;;;24.70;56.60;;;;;;5042003;28;20056;-69
2021/04/28 09:11:43;;;;;;;13.95;6.90;;;24.90;54.30;;;;;;5042591;28;20141;-68
2021/04/28 09:14:20;;;;;;;10.30;7.20;;;25.20;54.60;;;;;;5045024;28;20044;-68
2021/04/28 09:17:00;;;;;;;10.48;6.78;;;25.40;53.80;;;;;;5042207;28;20127;-70
2021/04/28 09:19:31;;;;;;;11.85;7.75;;;26.60;51.50;;;;;;5043229;28;20057;-68
2021/04/28 09:22:00;;;;;;;11.90;6.97;;;25.50;51.20;;;;;;5044196;28;20052;-68
2021/04/28 09:24:29;;;;;;;11.32;6.53;;;26.80;50.30;;;;;;5042844;28;20067;-69
2021/04/28 09:26:57;;;;;;;12.48;6.55;;;27.50;48.20;;;;;;5041856;28;20059;-68
2021/04/28 09:29:29;;;;;;;12.27;6.80;;;27.00;48.10;;;;;;5040192;28;20111;-69
2021/04/28 09:32:01;;;;;;;11.80;7.43;;;26.60;48.80;;;;;;5042401;28;20074;-68
2021/04/28 09:34:33;;;;;;;12.93;7.15;;;27.20;48.20;;;;;;5045590;28;20113;-69
2021/04/28 09:37:12;;;;;;;14.20;6.95;;;27.80;47.00;;;;;;5042784;28;20600;-69
2021/04/28 09:39:44;;;;;;;11.02;6.75;;;28.20;45.40;;;;;;5045198;28;20052;-70
2021/04/28 09:42:12;;;;;;;11.25;6.93;;;27.30;44.90;;;;;;5040956;28;20048;-68
2021/04/28 09:44:44;;;;;;;12.82;7.25;;;26.20;45.30;;;;;;5045137;28;20097;-70
2021/04/28 09:47:15;;;;;;;11.60;6.45;;;26.40;46.50;;;;;;5045519;28;20052;-72
2021/04/28 09:49:55;;;;;;;11.90;6.25;;;27.10;44.30;;;;;;5046889;28;20048;-71
2021/04/28 09:52:40;;;;;;;11.30;6.68;;;27.00;44.30;;;;;;5052612;28;20052;-70
2021/04/28 09:55:09;;;;;;;10.50;6.03;;;27.90;43.80;;;;;;5052002;28;20504;-70
2021/04/28 09:57:38;;;;;;;13.27;6.78;;;28.50;43.00;;;;;;5053238;28;20056;-70
2021/04/28 10:00:14;;;;;;;10.40;6.40;;;27.40;41.60;;;;;;5046667;28;20058;-69
2021/04/28 10:02:42;;;;;;;10.63;6.35;;;26.60;42.50;;;;;;5046757;28;20177;-72
2021/04/28 10:05:24;;;;;;;15.07;7.07;;;27.20;42.70;;;;;;5043807;28;20764;-70
2021/04/28 10:07:52;;;;;;;10.93;6.15;;;26.60;42.30;;;;;;5045218;28;20059;-72
2021/04/28 10:10:20;;;;;;;13.25;6.40;;;25.80;42.20;;;;;;5041218;28;20453;-72
2021/04/28 10:12:48;;;;;;;15.02;7.60;;;25.10;42.90;;;;;;5043924;28;20592;-69
2021/04/28 10:15:15;;;;;;;11.32;6.45;;;25.10;43.30;;;;;;5044578;28;20109;-71
2021/04/28 10:17:43;;;;;;;14.48;6.25;;;24.60;42.40;;;;;;5039730;28;20790;-71
2021/04/28 10:20:10;;;;;;;14.73;6.28;;;24.80;42.10;;;;;;5048646;28;20048;-70
2021/04/28 10:22:39;;;;;;;15.40;7.60;;;25.20;42.20;;;;;;5043697;28;20064;-70
2021/04/28 10:25:09;;;;;;;14.25;6.47;;;25.10;41.80;;;;;;5045175;28;20079;-70
2021/04/28 10:27:38;;;;;;;14.70;6.72;;;25.20;42.70;;;;;;5041846;28;20572;-71
2021/04/28 10:30:06;;;;;;;19.42;6.97;;;24.90;41.20;;;;;;5042055;28;20063;-70
2021/04/28 10:32:35;;;;;;;11.02;6.65;;;24.30;41.60;;;;;;5046000;28;20079;-69
2021/04/28 10:35:04;;;;;;;11.77;6.80;;;24.60;42.00;;;;;;5043670;28;20051;-70
2021/04/28 10:37:33;;;;;;;13.52;6.43;;;24.80;41.20;;;;;;5040901;28;20080;-71
2021/04/28 10:40:00;;;;;;;12.75;6.03;;;25.40;40.00;;;;;;5045422;28;20079;-70
2021/04/28 10:42:33;;;;;;;9.57;6.07;;;25.50;40.60;;;;;;5041606;28;20067;-70
2021/04/28 10:45:01;;;;;;;12.25;6.30;;;25.70;40.10;;;;;;5043993;28;20688;-70
2021/04/28 10:47:39;;;;;;;14.10;6.35;;;25.10;38.40;;;;;;5043022;28;20052;-71
2021/04/28 10:50:22;;;;;;;10.27;5.85;;;25.60;38.70;;;;;;5041680;28;20044;-72
2021/04/28 10:53:17;;;;;;;11.85;6.40;;;26.30;38.80;;;;;;5039234;28;20056;-70
2021/04/28 10:55:51;;;;;;;10.65;6.03;;;26.00;38.10;;;;;;5044991;28;20044;-70
2021/04/28 10:58:36;;;;;;;9.98;5.97;;;25.90;38.90;;;;;;5041243;28;20048;-71
2021/04/28 11:01:23;;;;;;;12.40;6.70;;;26.30;39.80;;;;;;5044536;28;20044;-70
2021/04/28 11:03:52;;;;;;;10.18;6.85;;;25.00;40.10;;;;;;5046890;28;20090;-72
2021/04/28 11:06:36;;;;;;;11.07;6.65;;;26.00;39.50;;;;;;5046829;28;20498;-70
2021/04/28 11:09:09;;;;;;;14.50;7.10;;;26.30;38.60;;;;;;5048125;28;20080;-70
2021/04/28 11:11:42;;;;;;;10.70;6.55;;;26.30;38.80;;;;;;5057472;28;20043;-72
2021/04/28 11:14:51;;;;;;;13.45;7.00;;;27.50;38.50;;;;;;5055104;28;20177;-70
2021/04/28 11:17:26;;;;;;;9.82;6.55;;;27.60;37.90;;;;;;4992427;28;20146;-71
2021/04/28 11:19:53;;;;;;;11.23;6.00;;;26.80;37.40;;;;;;5042127;28;20100;-74
2021/04/28 11:22:22;;;;;;;11.52;6.57;;;27.40;38.10;;;;;;5046513;28;20061;-73
2021/04/28 11:25:17;;;;;;;10.90;6.60;;;26.30;37.70;;;;;;5050119;28;20460;-73
2021/04/28 11:28:03;;;;;;;11.45;6.93;;;26.50;38.10;;;;;;5045421;28;20037;-73
2021/04/28 11:30:51;;;;;;;11.30;6.78;;;27.50;37.50;;;;;;5050397;28;20060;-70
2021/04/28 11:33:32;;;;;;;13.70;7.15;;;28.30;37.10;;;;;;5039720;28;20044;-71
2021/04/28 11:36:09;;;;;;;11.30;6.28;;;28.10;36.20;;;;;;5047075;28;20095;-69
2021/04/28 11:38:39;;;;;;;9.68;6.50;;;27.70;36.00;;;;;;5046861;28;20460;-72
2021/04/28 11:41:09;;;;;;;13.13;7.93;;;28.20;35.70;;;;;;5048352;28;20668;-68
2021/04/28 11:43:38;;;;;;;12.60;6.97;;;27.20;35.60;;;;;;5046526;28;20499;-69
2021/04/28 11:46:11;;;;;;;11.75;6.78;;;27.90;36.60;;;;;;5047565;28;20091;-71
2021/04/28 11:48:39;;;;;;;12.75;6.70;;;27.80;37.10;;;;;;5048751;28;20082;-70
2021/04/28 11:51:08;;;;;;;13.70;7.35;;;28.00;36.70;;;;;;5046682;28;20044;-71
2021/04/28 11:53:40;;;;;;;9.80;6.45;;;28.00;36.30;;;;;;5045190;28;20109;-70
2021/04/28 11:56:07;;;;;;;9.60;6.63;;;29.10;36.50;;;;;;5041347;28;20060;-72
2021/04/28 11:58:34;;;;;;;12.23;7.05;;;28.50;36.20;;;;;;5045674;28;20109;-69
2021/04/28 12:01:10;;;;;;;10.90;6.75;;;27.90;38.10;;;;;;5043251;28;20055;-73
2021/04/28 12:03:59;;;;;;;17.38;7.47;;;28.90;37.20;;;;;;5043449;28;20056;-73
2021/04/28 12:06:40;;;;;;;15.23;7.47;;;28.70;36.90;;;;;;5044005;28;20102;-71
2021/04/28 12:09:26;;;;;;;21.90;7.90;;;28.00;37.30;;;;;;5040494;28;20060;-72
2021/04/28 12:12:21;;;;;;;12.32;7.13;;;28.40;36.90;;;;;;5043920;28;20083;-71
2021/04/28 12:14:50;;;;;;;12.40;7.07;;;28.50;36.80;;;;;;5042598;28;20078;-71
2021/04/28 12:17:20;;;;;;;14.95;7.45;;;29.50;35.60;;;;;;5041894;28;20086;-72
2021/04/28 12:19:49;;;;;;;11.45;6.57;;;28.10;37.00;;;;;;5037268;28;20106;-74
2021/04/28 12:22:16;;;;;;;13.98;7.00;;;27.90;37.90;;;;;;5041367;28;20043;-70
2021/04/28 12:24:47;;;;;;;11.23;6.68;;;27.30;37.10;;;;;;5042097;28;20048;-72
2021/04/28 12:27:20;;;;;;;13.77;7.43;;;28.00;37.90;;;;;;5043116;28;20135;-71
2021/04/28 12:29:49;;;;;;;11.25;6.72;;;28.20;37.10;;;;;;5040661;28;21352;-73
2021/04/28 12:32:17;;;;;;;9.38;6.07;;;29.10;36.60;;;;;;5043614;28;20123;-70
2021/04/28 12:34:46;;;;;;;18.48;6.50;;;30.10;36.80;;;;;;5045002;28;20055;-71
2021/04/28 12:37:21;;;;;;;12.45;6.78;;;29.50;36.50;;;;;;5048057;28;20099;-69
2021/04/28 12:39:50;;;;;;;11.70;5.88;;;30.00;35.50;;;;;;5050830;28;20044;-70
2021/04/28 12:42:20;;;;;;;12.02;6.75;;;29.70;35.60;;;;;;5041915;28;20048;-71
2021/04/28 12:44:48;;;;;;;12.27;6.57;;;29.10;35.80;;;;;;5047515;28;20066;-71
2021/04/28 12:47:15;;;;;;;9.10;6.28;;;28.60;36.60;;;;;;5050871;28;20040;-70
2021/04/28 12:49:42;;;;;;;12.45;6.53;;;28.50;36.40;;;;;;5052991;28;20044;-72
2021/04/28 12:52:15;;;;;;;11.68;6.45;;;29.00;36.30;;;;;;5054298;28;20846;-70
2021/04/28 12:54:42;;;;;;;10.77;6.47;;;28.90;35.80;;;;;;5054441;28;20048;-70